createdAt,value
2023-10-03T00:00:26.121Z,12.70
2023-10-03T00:03:14.821Z,12.82
2023-10-03T00:06:01.376Z,12.10
2023-10-03T00:08:47.168Z,12.85
2023-10-03T00:11:34.708Z,12.18
2023-10-03T00:14:20.699Z,11.80
2023-10-03T00:17:06.377Z,12.68
2023-10-03T00:19:52.207Z,12.48
2023-10-03T00:22:39.988Z,13.07
2023-10-03T00:25:25.888Z,12.75
2023-10-03T00:28:12.354Z,13.13
2023-10-03T00:30:59.582Z,13.48
2023-10-03T00:33:45.686Z,13.85
2023-10-03T00:36:32.972Z,13.45
2023-10-03T00:39:18.713Z,13.68
2023-10-03T00:42:06.805Z,13.82
2023-10-03T00:44:54.104Z,13.68
2023-10-03T00:47:40.182Z,13.35
2023-10-03T00:50:28.330Z,13.25
2023-10-03T00:53:15.193Z,13.18
2023-10-03T00:56:03.454Z,13.70
2023-10-03T00:58:49.444Z,14.07
2023-10-03T01:01:37.502Z,13.77
2023-10-03T01:04:32.190Z,13.80
2023-10-03T01:07:17.892Z,13.70
2023-10-03T01:10:05.899Z,14.52
2023-10-03T01:12:55.641Z,14.13
2023-10-03T01:15:41.557Z,13.88
2023-10-03T01:18:32.820Z,14.52
2023-10-03T01:21:19.177Z,14.75
2023-10-03T01:24:10.003Z,14.60
2023-10-03T01:26:56.494Z,15.35
2023-10-03T01:29:42.174Z,14.10
2023-10-03T01:32:32.884Z,15.38
2023-10-03T01:35:18.939Z,14.55
2023-10-03T01:38:06.585Z,14.63
2023-10-03T01:40:59.833Z,14.48
2023-10-03T01:43:45.936Z,15.50
2023-10-03T01:46:31.906Z,14.57
2023-10-03T01:49:18.094Z,14.77
2023-10-03T01:52:04.449Z,13.73
2023-10-03T01:54:50.745Z,14.23
2023-10-03T01:57:36.403Z,14.77
2023-10-03T02:00:29.456Z,14.55
2023-10-03T02:03:15.373Z,14.33
2023-10-03T02:06:01.554Z,14.38
2023-10-03T02:08:48.396Z,14.57
2023-10-03T02:11:36.021Z,14.40
2023-10-03T02:14:21.821Z,14.68
2023-10-03T02:17:07.848Z,14.93
2023-10-03T02:19:54.118Z,15.10
2023-10-03T02:22:40.186Z,15.23
2023-10-03T02:25:29.210Z,15.73
2023-10-03T02:28:16.981Z,14.63
2023-10-03T02:31:08.580Z,14.20
2023-10-03T02:33:55.118Z,14.55
2023-10-03T02:36:41.389Z,15.25
2023-10-03T02:39:36.476Z,15.38
2023-10-03T02:42:22.480Z,14.38
2023-10-03T02:45:10.167Z,15.18
2023-10-03T02:47:57.698Z,15.20
2023-10-03T02:50:48.427Z,14.88
2023-10-03T02:53:36.470Z,15.98
2023-10-03T02:56:24.001Z,15.68
2023-10-03T02:59:10.112Z,14.88
2023-10-03T03:01:57.827Z,15.05
2023-10-03T03:04:45.006Z,14.90
2023-10-03T03:07:33.459Z,15.25
2023-10-03T03:10:19.414Z,15.18
2023-10-03T03:13:08.015Z,15.32
2023-10-03T03:16:01.146Z,16.13
2023-10-03T03:18:51.098Z,15.23
2023-10-03T03:21:36.756Z,13.75
2023-10-03T03:24:34.838Z,13.45
2023-10-03T03:27:24.318Z,13.88
2023-10-03T03:30:31.829Z,13.43
2023-10-03T03:33:21.485Z,11.98
2023-10-03T03:36:09.156Z,11.98
2023-10-03T03:38:56.344Z,12.35
2023-10-03T03:41:43.555Z,12.40
2023-10-03T03:44:29.563Z,11.25
2023-10-03T03:47:15.084Z,11.35
2023-10-03T03:50:03.078Z,10.75
2023-10-03T03:52:50.276Z,11.40
2023-10-03T03:55:36.765Z,10.93
2023-10-03T03:58:22.563Z,11.20
2023-10-03T04:01:14.329Z,11.07
2023-10-03T04:04:01.240Z,11.68
2023-10-03T04:06:47.184Z,11.70
2023-10-03T04:09:33.167Z,12.23
2023-10-03T04:12:20.132Z,12.05
2023-10-03T04:15:09.177Z,12.30
2023-10-03T04:17:56.922Z,12.70
2023-10-03T04:20:47.837Z,12.95
2023-10-03T04:23:33.947Z,12.68
2023-10-03T04:26:19.718Z,12.20
2023-10-03T04:29:05.775Z,12.57
2023-10-03T04:31:51.508Z,12.32
2023-10-03T04:34:37.119Z,12.50
2023-10-03T04:37:22.841Z,13.20
2023-10-03T04:40:18.034Z,11.90
2023-10-03T04:43:09.953Z,11.98
2023-10-03T04:45:58.075Z,11.38
2023-10-03T04:48:43.786Z,11.75
2023-10-03T04:51:29.812Z,11.07
2023-10-03T04:54:15.533Z,11.88
2023-10-03T04:57:01.565Z,11.32
2023-10-03T04:59:47.579Z,10.75
2023-10-03T05:02:33.900Z,11.55
2023-10-03T05:05:21.646Z,11.90
2023-10-03T05:08:09.748Z,11.60
2023-10-03T05:10:57.882Z,12.30
2023-10-03T05:13:44.642Z,12.30
2023-10-03T05:16:31.057Z,11.82
2023-10-03T05:19:17.093Z,12.68
2023-10-03T05:22:04.197Z,13.25
2023-10-03T05:24:51.079Z,13.38
2023-10-03T05:27:37.036Z,12.57
2023-10-03T05:30:24.313Z,13.25
2023-10-03T05:33:10.303Z,13.80
2023-10-03T05:35:56.555Z,14.93
2023-10-03T05:38:43.928Z,13.50
2023-10-03T05:41:30.236Z,13.73
2023-10-03T05:44:19.669Z,13.02
2023-10-03T05:47:06.807Z,15.00
2023-10-03T05:49:52.569Z,13.35
2023-10-03T05:52:38.600Z,12.00
2023-10-03T05:55:24.329Z,11.90
2023-10-03T05:58:13.774Z,12.18
2023-10-03T06:01:00.521Z,12.57
2023-10-03T06:03:47.462Z,12.55
2023-10-03T06:06:34.187Z,11.80
2023-10-03T06:09:21.870Z,11.88
2023-10-03T06:12:07.989Z,11.40
2023-10-03T06:14:53.813Z,11.38
2023-10-03T06:17:41.395Z,11.48
2023-10-03T06:20:27.842Z,11.23
2023-10-03T06:23:13.550Z,11.18
2023-10-03T06:25:59.640Z,11.13
2023-10-03T06:28:52.157Z,11.68
2023-10-03T06:31:37.754Z,11.45
2023-10-03T06:34:26.484Z,11.63
2023-10-03T06:37:12.472Z,12.35
2023-10-03T06:39:58.226Z,13.10
2023-10-03T06:42:44.417Z,12.20
2023-10-03T06:45:30.278Z,12.80
2023-10-03T06:48:16.411Z,11.85
2023-10-03T06:51:06.391Z,11.63
2023-10-03T06:53:53.548Z,10.88
2023-10-03T06:56:39.390Z,10.82
2023-10-03T06:59:25.211Z,9.95
2023-10-03T07:02:11.194Z,10.73
2023-10-03T07:04:57.204Z,9.32
2023-10-03T07:07:43.313Z,9.02
2023-10-03T07:10:29.677Z,10.77
2023-10-03T07:13:15.294Z,9.65
2023-10-03T07:16:01.078Z,8.75
2023-10-03T07:18:46.934Z,8.05
2023-10-03T07:21:36.211Z,7.53
2023-10-03T07:24:22.408Z,7.68
2023-10-03T07:27:09.206Z,7.88
2023-10-03T07:29:55.205Z,6.82
2023-10-03T07:32:41.365Z,7.80
2023-10-03T07:35:27.535Z,7.20
2023-10-03T07:38:14.945Z,7.10
2023-10-03T07:41:14.751Z,6.55
2023-10-03T07:44:00.671Z,6.32
2023-10-03T07:46:47.405Z,5.95
2023-10-03T07:49:33.415Z,5.90
2023-10-03T07:52:23.117Z,5.90
2023-10-03T07:55:09.012Z,5.85
2023-10-03T07:57:56.200Z,5.95
2023-10-03T08:00:47.335Z,6.20
2023-10-03T08:03:35.129Z,5.60
2023-10-03T08:06:26.281Z,5.13
2023-10-03T08:09:15.484Z,5.32
2023-10-03T08:12:02.102Z,6.15
2023-10-03T08:14:53.179Z,6.28
2023-10-03T08:17:39.465Z,5.70
2023-10-03T08:26:04.099Z,6.43
2023-10-03T08:29:00.947Z,5.97
2023-10-03T08:31:47.381Z,6.40
2023-10-03T08:34:33.458Z,7.25
2023-10-03T08:37:23.470Z,6.57
2023-10-03T08:40:21.555Z,5.68
2023-10-03T08:43:12.188Z,6.70
2023-10-03T08:45:58.724Z,6.95
2023-10-03T08:48:46.380Z,6.30
2023-10-03T08:51:34.959Z,6.55
2023-10-03T08:54:21.144Z,7.80
2023-10-03T08:57:11.131Z,7.05
2023-10-03T08:59:57.319Z,8.00
2023-10-03T09:02:50.776Z,8.38
2023-10-03T09:05:42.479Z,7.55
2023-10-03T09:08:28.379Z,7.55
2023-10-03T09:11:15.141Z,6.97
2023-10-03T09:14:01.240Z,6.65
2023-10-03T09:16:52.827Z,6.00
2023-10-03T09:19:47.295Z,6.60
2023-10-03T09:22:33.599Z,6.07
2023-10-03T09:25:23.002Z,7.28
2023-10-03T09:28:11.321Z,7.05
2023-10-03T09:30:57.454Z,5.60
2023-10-03T09:33:43.589Z,6.90
2023-10-03T09:36:29.828Z,7.00
2023-10-03T09:39:22.555Z,9.85
2023-10-03T09:42:17.109Z,10.60
2023-10-03T09:45:08.243Z,8.93
2023-10-03T09:47:59.763Z,8.48
2023-10-03T09:50:53.323Z,7.72
2023-10-03T09:53:40.867Z,7.50
2023-10-03T09:56:27.263Z,8.88
2023-10-03T09:59:19.271Z,7.85
2023-10-03T10:02:06.961Z,8.43
2023-10-03T10:04:53.257Z,6.75
2023-10-03T10:08:10.061Z,9.55
2023-10-03T10:11:11.860Z,10.38
2023-10-03T10:14:17.659Z,11.00
2023-10-03T10:17:07.394Z,8.82
2023-10-03T10:20:12.690Z,10.80
2023-10-03T10:22:59.675Z,9.50
2023-10-03T10:25:53.055Z,8.50
2023-10-03T10:28:43.688Z,8.98
2023-10-03T10:31:38.423Z,7.97
2023-10-03T10:34:24.134Z,9.65
2023-10-03T10:37:13.193Z,11.57
2023-10-03T10:40:06.133Z,9.02
2023-10-03T10:43:09.813Z,9.95
2023-10-03T10:46:48.691Z,11.05
2023-10-03T10:49:41.384Z,8.48
2023-10-03T10:52:27.492Z,10.75
2023-10-03T10:55:16.832Z,10.50
2023-10-03T10:58:09.703Z,9.38
2023-10-03T11:00:59.672Z,11.13
2023-10-03T11:03:47.163Z,11.02
2023-10-03T11:06:33.568Z,11.70
2023-10-03T11:09:22.532Z,11.32
2023-10-03T11:12:08.708Z,13.70
2023-10-03T11:14:56.292Z,14.27
2023-10-03T11:17:49.932Z,13.77
2023-10-03T11:20:35.947Z,12.35
2023-10-03T11:23:24.344Z,8.27
2023-10-03T11:26:11.085Z,10.52
2023-10-03T11:28:56.810Z,8.00
2023-10-03T11:31:44.091Z,6.07
2023-10-03T11:34:35.791Z,5.65
2023-10-03T11:37:38.338Z,7.45
2023-10-03T11:40:29.886Z,6.10
2023-10-03T11:43:21.872Z,6.32
2023-10-03T11:46:09.945Z,5.55
2023-10-03T11:49:02.558Z,6.57
2023-10-03T11:51:50.111Z,5.60
2023-10-03T11:54:35.730Z,5.93
2023-10-03T11:57:21.405Z,6.40
2023-10-03T12:00:16.174Z,6.05
2023-10-03T12:03:05.239Z,5.78
2023-10-03T12:05:55.602Z,5.32
2023-10-03T12:08:43.389Z,4.93
2023-10-03T12:11:30.816Z,6.65
2023-10-03T12:14:16.697Z,5.90
2023-10-03T12:17:02.960Z,5.93
2023-10-03T12:19:49.199Z,6.25
2023-10-03T12:22:35.140Z,5.65
2023-10-03T12:25:24.955Z,5.22
2023-10-03T12:28:11.519Z,5.20
2023-10-03T12:30:57.503Z,5.68
2023-10-03T12:33:43.579Z,5.40
2023-10-03T12:36:31.133Z,5.45
2023-10-03T12:39:19.626Z,4.63
2023-10-03T12:42:07.236Z,4.65
2023-10-03T12:44:54.024Z,5.53
2023-10-03T12:47:41.184Z,5.40
2023-10-03T12:50:29.047Z,5.40
2023-10-03T12:53:15.089Z,4.93
2023-10-03T12:56:01.116Z,5.32
2023-10-03T12:58:47.041Z,4.85
2023-10-03T13:01:32.989Z,5.78
2023-10-03T13:04:20.316Z,5.80
2023-10-03T13:07:06.073Z,5.25
2023-10-03T13:09:52.574Z,4.95
2023-10-03T13:12:38.338Z,5.30
2023-10-03T13:15:24.495Z,5.00
2023-10-03T13:18:14.982Z,5.30
2023-10-03T13:21:00.854Z,5.43
2023-10-03T13:23:47.942Z,5.13
2023-10-03T13:26:33.884Z,4.72
2023-10-03T13:29:20.967Z,5.38
2023-10-03T13:32:06.857Z,5.75
2023-10-03T13:34:52.762Z,5.03
2023-10-03T13:37:38.420Z,5.30
2023-10-03T13:40:26.549Z,5.70
2023-10-03T13:43:20.087Z,5.30
2023-10-03T13:46:07.037Z,5.07
2023-10-03T13:48:54.313Z,5.00
2023-10-03T13:51:40.049Z,5.25
2023-10-03T13:54:26.087Z,5.35
2023-10-03T13:57:12.734Z,5.28
2023-10-03T13:59:58.751Z,4.68
2023-10-03T14:02:46.930Z,5.10
2023-10-03T14:05:35.872Z,5.05
2023-10-03T14:08:21.878Z,5.57
2023-10-03T14:11:08.116Z,5.18
2023-10-03T14:13:56.815Z,4.90
2023-10-03T14:16:45.154Z,5.03
2023-10-03T14:19:32.117Z,5.55
2023-10-03T14:22:20.018Z,5.10
2023-10-03T14:25:06.224Z,5.63
2023-10-03T14:27:52.044Z,5.47
2023-10-03T14:30:40.451Z,5.35
2023-10-03T14:33:26.333Z,5.68
2023-10-03T14:36:16.301Z,6.22
2023-10-03T14:39:02.518Z,5.90
2023-10-03T14:41:49.423Z,6.13
2023-10-03T14:44:40.603Z,5.50
2023-10-03T14:47:29.155Z,5.45
2023-10-03T14:50:14.781Z,5.38
2023-10-03T14:53:02.080Z,5.40
2023-10-03T14:55:47.970Z,5.82
2023-10-03T14:58:39.570Z,9.73
2023-10-03T15:01:25.182Z,5.72
2023-10-03T15:04:11.376Z,5.32
2023-10-03T15:06:58.939Z,5.68
2023-10-03T15:09:45.111Z,5.20
2023-10-03T15:12:31.347Z,5.68
2023-10-03T15:15:17.353Z,5.40
2023-10-03T15:18:05.208Z,5.65
2023-10-03T15:20:52.069Z,4.97
2023-10-03T15:23:40.125Z,5.82
2023-10-03T15:26:26.084Z,5.85
2023-10-03T15:29:12.856Z,5.28
2023-10-03T15:31:58.987Z,4.68
2023-10-03T15:34:44.849Z,5.53
2023-10-03T15:37:32.611Z,5.50
2023-10-03T15:40:20.940Z,5.30
2023-10-03T15:43:06.633Z,5.47
2023-10-03T15:45:52.831Z,4.95
2023-10-03T15:48:39.346Z,5.20
2023-10-03T15:51:25.386Z,5.38
2023-10-03T15:54:12.723Z,5.82
2023-10-03T15:56:59.084Z,5.20
2023-10-03T15:59:45.428Z,6.10
2023-10-03T16:10:13.585Z,5.88
2023-10-03T16:12:59.522Z,5.22
2023-10-03T16:15:46.876Z,5.30
2023-10-03T16:18:33.868Z,5.30
2023-10-03T16:21:19.652Z,6.00
2023-10-03T16:24:05.873Z,7.03
2023-10-03T16:26:51.730Z,6.75
2023-10-03T16:29:37.431Z,5.88
2023-10-03T16:32:24.125Z,6.28
2023-10-03T16:35:16.228Z,5.90
2023-10-03T16:38:02.397Z,6.60
2023-10-03T16:40:48.271Z,5.32
2023-10-03T16:43:34.217Z,4.88
2023-10-03T16:46:20.560Z,6.25
2023-10-03T16:49:07.850Z,6.57
2023-10-03T16:51:53.473Z,6.38
2023-10-03T16:54:39.522Z,6.65
2023-10-03T16:57:33.360Z,6.05
2023-10-03T17:00:20.736Z,6.15
2023-10-03T17:03:06.853Z,6.10
2023-10-03T17:05:52.771Z,6.95
2023-10-03T17:08:38.912Z,6.85
2023-10-03T17:11:26.988Z,6.80
2023-10-03T17:14:12.858Z,7.10
2023-10-03T17:16:58.980Z,7.00
2023-10-03T17:19:44.649Z,8.80
2023-10-03T17:22:30.368Z,9.35
2023-10-03T17:25:18.105Z,9.45
2023-10-03T17:28:06.434Z,7.32
2023-10-03T17:30:52.454Z,7.55
2023-10-03T17:33:38.400Z,6.75
2023-10-03T17:36:24.800Z,6.95
2023-10-03T17:39:12.238Z,6.45
2023-10-03T17:41:58.762Z,6.40
2023-10-03T17:44:45.330Z,6.72
2023-10-03T17:47:32.367Z,6.80
2023-10-03T17:50:18.630Z,7.38
2023-10-03T17:53:04.488Z,6.65
2023-10-03T17:55:52.497Z,5.50
2023-10-03T17:58:38.411Z,6.13
2023-10-03T18:01:26.351Z,6.00
2023-10-03T18:04:12.706Z,5.55
2023-10-03T18:06:59.860Z,5.80
2023-10-03T18:09:47.111Z,5.55
2023-10-03T18:12:32.603Z,5.18
2023-10-03T18:15:22.181Z,4.93
2023-10-03T18:18:09.422Z,5.10
2023-10-03T18:20:58.674Z,5.13
2023-10-03T18:23:46.974Z,4.55
2023-10-03T18:26:32.755Z,4.70
2023-10-03T18:29:18.625Z,4.40
2023-10-03T18:32:06.490Z,4.20
2023-10-03T18:34:52.517Z,4.53
2023-10-03T18:37:39.137Z,4.22
2023-10-03T18:40:24.949Z,4.47
2023-10-03T18:43:11.209Z,4.32
2023-10-03T18:45:58.807Z,4.47
2023-10-03T18:48:45.211Z,5.65
2023-10-03T18:51:31.112Z,4.50
2023-10-03T18:54:18.370Z,4.40
2023-10-03T18:57:06.960Z,4.78
2023-10-03T18:59:52.944Z,4.60
2023-10-03T19:02:39.200Z,4.43
2023-10-03T19:05:24.799Z,4.40
2023-10-03T19:08:10.612Z,4.90
2023-10-03T19:10:56.262Z,4.78
2023-10-03T19:13:42.356Z,4.72
2023-10-03T19:16:28.639Z,4.53
2023-10-03T19:19:14.687Z,4.40
2023-10-03T19:22:00.673Z,4.53
2023-10-03T19:24:51.827Z,4.55
2023-10-03T19:27:41.742Z,4.78
2023-10-03T19:30:27.860Z,5.13
2023-10-03T19:33:13.670Z,4.60
2023-10-03T19:35:59.634Z,5.15
2023-10-03T19:38:45.676Z,4.90
2023-10-03T19:41:31.612Z,4.32
2023-10-03T19:44:17.795Z,4.28
2023-10-03T19:47:05.288Z,4.68
2023-10-03T19:49:52.010Z,3.80
2023-10-03T19:52:37.772Z,4.13
2023-10-03T19:55:24.251Z,4.60
2023-10-03T19:58:10.890Z,4.57
2023-10-03T20:00:57.023Z,4.75
2023-10-03T20:03:45.893Z,4.35
2023-10-03T20:06:32.050Z,4.88
2023-10-03T20:09:18.244Z,4.75
2023-10-03T20:12:07.292Z,4.95
2023-10-03T20:14:55.726Z,4.72
2023-10-03T20:17:41.836Z,5.47
2023-10-03T20:20:30.311Z,4.63
2023-10-03T20:23:16.412Z,4.97
2023-10-03T20:26:03.099Z,5.90
2023-10-03T20:28:51.026Z,5.35
2023-10-03T20:31:38.589Z,5.13
2023-10-03T20:34:24.622Z,5.35
2023-10-03T20:37:12.288Z,5.10
2023-10-03T20:39:59.901Z,4.93
2023-10-03T20:42:49.646Z,4.80
2023-10-03T20:45:38.622Z,5.28
2023-10-03T20:48:24.644Z,4.82
2023-10-03T20:51:24.111Z,5.22
2023-10-03T20:54:09.818Z,5.68
2023-10-03T20:56:55.355Z,5.47
2023-10-03T20:59:41.317Z,5.05
2023-10-03T21:02:28.830Z,5.60
2023-10-03T21:05:15.861Z,5.30
2023-10-03T21:08:03.337Z,5.07
2023-10-03T21:10:49.394Z,5.45
2023-10-03T21:13:35.663Z,5.03
2023-10-03T21:16:21.940Z,4.95
2023-10-03T21:19:07.578Z,5.82
2023-10-03T21:21:53.298Z,4.90
2023-10-03T21:24:39.100Z,5.47
2023-10-03T21:27:25.548Z,5.28
2023-10-03T21:30:13.122Z,5.57
2023-10-03T21:32:59.937Z,5.22
2023-10-03T21:35:45.465Z,4.95
2023-10-03T21:38:31.189Z,4.90
2023-10-03T21:41:17.450Z,5.35
2023-10-03T21:44:03.160Z,4.85
2023-10-03T21:46:49.221Z,4.75
2023-10-03T21:49:35.990Z,5.20
2023-10-03T21:52:21.570Z,5.30
2023-10-03T21:55:09.255Z,5.13
2023-10-03T21:57:55.402Z,5.20
2023-10-03T22:00:47.025Z,5.20
2023-10-03T22:03:38.049Z,5.65
2023-10-03T22:06:24.241Z,5.25
2023-10-03T22:09:11.422Z,5.53
2023-10-03T22:11:57.187Z,5.55
2023-10-03T22:14:43.264Z,5.93
2023-10-03T22:17:29.380Z,5.70
2023-10-03T22:20:15.262Z,5.38
2023-10-03T22:23:01.057Z,5.80
2023-10-03T22:25:49.163Z,5.10
2023-10-03T22:28:35.140Z,5.95
2023-10-03T22:31:21.916Z,5.55
2023-10-03T22:34:07.674Z,5.13
2023-10-03T22:36:53.469Z,5.50
2023-10-03T22:39:39.480Z,5.75
2023-10-03T22:42:25.439Z,5.40
2023-10-03T22:45:11.502Z,6.00
2023-10-03T22:47:57.658Z,6.13
2023-10-03T22:50:43.558Z,5.78
2023-10-03T22:53:29.266Z,5.38
2023-10-03T22:56:17.509Z,5.70
2023-10-03T22:59:04.438Z,5.70
2023-10-03T23:01:50.437Z,5.60
2023-10-03T23:04:37.255Z,6.20
2023-10-03T23:07:22.972Z,5.30
2023-10-03T23:10:10.799Z,5.18
2023-10-03T23:12:56.941Z,5.20
2023-10-03T23:15:42.807Z,5.40
2023-10-03T23:18:29.413Z,5.22
2023-10-03T23:21:15.113Z,5.13
2023-10-03T23:24:01.026Z,5.28
2023-10-03T23:26:47.884Z,5.28
2023-10-03T23:29:33.742Z,5.38
2023-10-03T23:32:19.346Z,5.88
2023-10-03T23:35:05.710Z,6.38
2023-10-03T23:37:52.338Z,5.70
2023-10-03T23:40:38.275Z,5.75
2023-10-03T23:43:24.037Z,6.30
2023-10-03T23:46:10.912Z,5.68
2023-10-03T23:48:56.723Z,5.50
2023-10-03T23:51:42.582Z,5.97
2023-10-03T23:54:28.640Z,5.30
2023-10-03T23:57:20.160Z,5.43
